Anza Borrego Desert State Park, California Weather observations

Data are for 10 minute period ending at time listed.
 Day   Time   Solar   Ave.   Ave.  Ave.  Vector  Max.   Baro.   Total    
  of    of     Rad.   Air    Rel.  Wind   Wind   Wind  Press.  Precip.   
Year   Day            Temp.  Hum.  Speed  Dir.   Gust                    
2026   (PST)  Kw/m2    F      %     mph   deg.    mph    mb.     in.     
-------------------------------------------------------------------------
 126   21:10   0.00   73.7    31    2.4   207     3.8   984.9    0.00 
 126   21:20   0.00   72.9    32    3.8   207     5.2   984.8    0.00 
 126   21:30   0.00   73.0    32    3.2   223     5.0   984.7    0.00 
 126   21:40   0.00   73.0    32    3.6   220     4.5   984.6    0.00 
 126   21:50   0.00   71.2    34    4.7   200     6.9   984.6    0.00 
 126   22:00   0.00   72.4    32    4.6   184     6.9   984.6    0.00 
 126   22:10   0.00   71.8    33    2.9   246     4.4   984.6    0.00 
 126   22:20   0.00   72.5    35    2.5   209     5.0   984.6    0.00 
 126   22:30   0.00   72.7    35    4.2   176     6.7   984.5    0.00 
 126   22:40   0.00   73.1    34    4.9   192     8.1   984.6    0.00 
 126   22:50   0.00   73.1    35    6.1   170     8.2   984.6    0.00 
 126   23:00   0.00   73.8    34    6.1   158    10.1   984.7    0.00 
 126   23:10   0.00   72.7    35    3.1   202     6.2   984.7    0.00 
 126   23:20   0.00   70.3    36    4.3   230     5.6   984.7    0.00 
 126   23:30   0.00   71.0    35    4.4   224     6.3   984.6    0.00 
 126   23:40   0.00   68.8    34    4.3   242     6.3   984.6    0.00 
 126   23:50   0.00   68.1    34    3.6   224     5.4   984.6    0.00 
 127    0:00   0.00   69.7    33    3.1   236     5.7   984.6    0.00 
 127    0:10   0.00   69.7    33    4.2   278     5.6   984.7    0.00 
 127    0:20   0.00   70.8    34    2.0   280     3.8   984.6    0.00 
 127    0:30   0.00   68.1    36    0.5   204     2.0   984.6    0.00 
 127    0:40   0.00   66.1    38    1.9   264     3.4   984.6    0.00 
 127    0:50   0.00   65.6    38    3.1   248     5.8   984.5    0.00 
 127    1:00   0.00   65.7    36    6.6   237     8.3   984.3    0.00 
 127    1:10   0.00   67.3    34    5.4   252     7.5   984.1    0.00 
 127    1:20   0.00   67.5    35    3.7   266     4.7   984.0    0.00 
 127    1:30   0.00   66.8    35    2.6   274     3.3   984.0    0.00 
 127    1:40   0.00   67.9    33    2.7   264     3.7   983.9    0.00 
 127    1:50   0.00   67.3    33    2.7   251     3.5   983.8    0.00 
 127    2:00   0.00   67.4    32    1.9   248     3.3   983.7    0.00 
 127    2:10   0.00   66.9    33    2.0   250     3.7   983.7    0.00 
 127    2:20   0.00   66.2    34    1.5   302     2.9   983.7    0.00 
 127    2:30   0.00   66.3    35    0.9   246     1.9   983.6    0.00 
 127    2:40   0.00   66.2    34    3.5   213     4.8   983.6    0.00 
 127    2:50   0.00   64.9    35    3.2   228     4.2   983.6    0.00 
 127    3:00   0.00   64.8    36    3.4   242     5.1   983.6    0.00 
 127    3:10   0.00   65.2    35    4.6   251     6.1   983.5    0.00 
 127    3:20   0.00   64.4    36    4.6   233     5.9   983.6    0.00 
 127    3:30   0.00   63.9    36    4.6   220     5.9   983.6    0.00 
 127    3:40   0.00   66.1    33    3.4   229     5.3   983.7    0.00 
 127    3:50   0.00   65.5    34    2.7   231     3.6   983.8    0.00 
 127    4:00   0.00   63.7    36    3.1   234     4.0   983.7    0.00 
 127    4:10   0.00   63.1    36    3.5   263     4.5   983.7    0.00 
 127    4:20   0.00   64.5    34    3.6   256     4.7   983.8    0.00 
 127    4:30   0.00   64.7    34    4.3   256     5.4   983.8    0.00 
 127    4:40   0.00   63.2    35    4.4   258     5.0   983.8    0.00 
 127    4:50   0.00   63.0    35    4.3   260     5.2   983.8    0.00 
 127    5:00   0.01   63.8    33    2.9   262     4.7   983.9    0.00 
 127    5:10   0.01   63.6    34    1.5   281     2.9   984.0    0.00 
 127    5:20   0.04   64.5    33    2.5   239     3.9   984.0    0.00 
 127    5:30   0.06   65.9    32    1.7   234     3.5   984.0    0.00 
 127    5:40   0.10   68.3    29    2.5   232     3.8   984.1    0.00 
 127    5:50   0.13   70.8    28    2.9   246     3.8   984.2    0.00 
 127    6:00   0.17   73.0    28    2.3   266     3.9   984.2    0.00 
 127    6:10   0.20   75.0    28    0.9   311     2.0   984.3    0.00 
 127    6:20   0.23   77.0    27    0.2   320     1.0   984.4    0.00 
 127    6:30   0.27   79.1    25    0.0    68     0.2   984.5    0.00 
 127    6:40   0.31   80.8    24    0.0   115     0.7   984.6    0.00 
 127    6:50   0.34   80.8    25    0.5   118     1.7   984.6    0.00 
 127    7:00   0.38   80.8    24    1.0    61     3.9   984.6    0.00 
 127    7:10   0.42   79.5    25    2.4    60     3.9   984.7    0.00 
 127    7:20   0.45   79.9    25    1.6    87     2.8   984.7    0.00 
 127    7:30   0.49   80.7    25    1.9    62     4.2   984.6    0.00 
 127    7:40   0.52   81.4    24    2.4    74     4.4   984.6    0.00 
 127    7:50   0.56   81.7    24    2.7    74     4.5   984.7    0.00 
 127    8:00   0.59   81.5    24    2.7    68     4.9   984.7    0.00 
 127    8:10   0.62   82.3    23    2.3    58     4.6   984.6    0.00 
 127    8:20   0.65   83.5    21    1.2    67     3.8   984.7    0.00 
 127    8:30   0.68   84.6    20    1.6    59     3.0   984.6    0.00 
 127    8:40   0.66   85.3    19    2.0    47     4.6   984.6    0.00 
 127    8:50   0.74   85.9    18    2.1    94     4.5   984.5    0.00 
 127    9:00   0.73   86.5    18    1.9   108     4.6   984.5    0.00 
 127    9:10   0.79   87.2    18    3.2   102     5.8   984.5    0.00 
 127    9:20   0.82   87.9    17    1.4    61     3.8   984.4    0.00 
 127    9:30   0.84   88.1    16    2.9    68     5.5   984.4    0.00 
 127    9:40   0.86   88.8    16    3.4    52     7.4   984.3    0.00 
 127    9:50   0.88   89.6    15    4.0    84     8.3   984.3    0.00 
 127   10:00   0.90   90.3    14    5.7   105    10.7   984.2    0.00 
 127   10:10   0.92   91.0    13    4.1   101     8.4   984.2    0.00 
 127   10:20   0.94   91.4    13    4.7    97     8.3   984.1    0.00 
 127   10:30   0.95   92.0    12    5.4   125     9.0   984.1    0.00 
 127   10:40   0.96   92.4    11    4.6   122     9.0   983.9    0.00 
 127   10:50   0.97   92.8    10    4.6   108     8.7   983.8    0.00 
 127   11:00   0.97   93.7    10    4.3   114     9.6   983.7    0.00 
 127   11:10   0.98   94.0    10    6.1   114    12.0   983.6    0.00 
 127   11:20   0.99   94.0    10    6.7   104    11.6   983.4    0.00 
 127   11:30   0.99   94.0     9    2.6   101     9.0   983.3    0.00 
 127   11:40   0.99   94.5     9    4.4   113     8.2   983.1    0.00 
 127   11:50   0.99   95.0     9    6.0    74    12.2   982.8    0.00 
 127   12:00   0.99   95.6     9    8.4    94    17.9   982.7    0.00 
 127   12:10   0.99   94.9     9    7.0    72    13.7   982.5    0.00 
 127   12:20   0.98   94.9     9    7.0   101    19.2   982.4    0.00 
 127   12:30   0.97   95.9     9    3.6    63     8.3   982.3    0.00 
 127   12:40   0.96   96.8     8   10.0    94    17.4   982.2    0.00 
 127   12:50   0.96   96.1     9    7.5    98    14.2   982.2    0.00 
 127   13:00   0.95   96.3     8    7.7   179    17.1   982.0    0.00 
 127   13:10   0.95   96.9     8    7.0   137    11.5   981.9    0.00 
 127   13:20   0.93   96.7     8    8.5   158    14.0   981.7    0.00 
 127   13:30   0.92   96.4     8    7.1   138    11.6   981.6    0.00 
 127   13:40   0.91   97.1     8    7.9   214    12.4   981.4    0.00 
 127   13:50   0.89   97.1     8    7.9   154    11.8   981.3    0.00 
 127   14:00   0.86   96.5     8    6.6   136    14.4   981.2    0.00 
 127   14:10   0.81   96.6     8    5.5   113    11.7   981.0    0.00 
 127   14:20   0.79   96.6     9    7.1   173    23.5   980.8    0.00 
 127   14:30   0.74   96.3     9    4.5   160     9.2   980.7    0.00 
 127   14:40   0.75   97.7     9    4.0   118    10.9   980.6    0.00 
 127   14:50   0.72   97.8    12   10.1   220    22.1   980.5    0.00 
 127   15:00   0.69   97.5    12   13.7   253    25.9   980.3    0.00 
 127   15:10   0.35   95.8    13   12.9   262    20.8   980.3    0.00 
 127   15:20   0.62   95.7    14   16.5   242    23.2   980.3    0.00 
 127   15:30   0.58   96.1    13   16.3   246    24.4   980.2    0.00 
 127   15:40   0.56   95.8    13   15.5   251    26.3   980.2    0.00 
 127   15:50   0.52   95.6    13   14.9   268    27.2   980.2    0.00 
 127   16:00   0.49   95.8    12   13.7   272    18.0   980.1    0.00 
 127   16:10   0.45   95.9    12   13.0   273    19.8   980.1    0.00 
 127   16:20   0.41   95.1    13   15.4   274    22.1   980.1    0.00 
 127   16:30   0.38   94.4    13   17.9   278    25.9   980.0    0.00 
 127   16:40   0.34   93.8    14   19.2   263    25.6   980.0    0.00 
 127   16:50   0.31   93.5    15   17.5   268    28.0   980.1    0.00 
 127   17:00   0.27   92.8    16   21.2   262    31.3   980.0    0.00 
 127   17:10   0.24   91.7    18   22.3   266    31.0   980.0    0.00 
 127   17:20   0.20   91.2    18   20.3   277    33.3   979.9    0.00 
 127   17:30   0.04   90.4    19   23.9   276    35.1   979.8    0.00 
 127   17:40   0.03   90.2    19   20.6   281    30.2   979.8    0.00 
 127   17:50   0.03   89.8    21   20.9   284    30.1   979.8    0.00 
 127   18:00   0.02   89.7    20   19.7   285    30.5   979.8    0.00 
 127   18:10   0.02   89.5    20   21.1   288    28.7   979.8    0.00 
 127   18:20   0.01   89.2    20   21.9   287    33.2   979.9    0.00 
 127   18:30   0.01   89.2    19   22.2   288    32.1   980.0    0.00 
 127   18:40   0.00   89.6    16   16.9   299    29.9   980.0    0.00 
 127   18:50   0.00   89.6    16   15.5   299    26.0   980.1    0.00 
 127   19:00   0.00   89.6    14   16.4   302    35.9   980.2    0.00 
 127   19:10   0.00   89.5    14   17.5   305    30.6   980.3    0.00 
 127   19:20   0.00   89.0    16   20.0   308    36.9   980.4    0.00 
 127   19:30   0.00   89.3    14   16.2   306    30.7   980.6    0.00 
 127   19:40   0.00   89.1    13   15.0   308    33.0   980.8    0.00 
 127   19:50   0.00   89.2    11    9.9   299    18.6   980.9    0.00 
 127   20:00   0.00   89.4    10    6.2   292    14.8   981.2    0.00 
 127   20:10   0.00   88.4    15    9.1   121    14.9   981.4    0.00 
 127   20:20   0.00   88.0    14    7.3   117    19.0   981.5    0.00 
 127   20:30   0.00   88.3    14    8.3    96    22.8   981.7    0.00 
 127   20:40   0.00   87.5    14   11.3   109    23.5   981.6    0.00 
 127   20:50   0.00   87.6    13    5.7    76    25.4   981.8    0.00 
 127   21:00   0.00   87.9    14    8.7    92    17.2   981.9    0.00 

Return to Anza Borrego Desert State Park graphs page.


Western Regional Climate Center,wrcc@dri.edu